Latest Coastal Weather Observations for Samuel Hill

IDQ60701

Issued at 10:31 am EST Saturday 25 April 2015 (issued every 10 minutes, with the page automatically refreshed every 10 minutes)

About coastal observations | Map of coastal stations | Coastal observations for QLD | Marine services | Other Formats
Station Details ID: 033308 Name: SAMUEL HILL AERO Lat: -22.74 Lon: 150.66 Height: 31.0 m
Data from the previous 72 hours. | See also: Recent months at Samuel Hill
Date/Time
EST
Temp

°C
Wind Pressure Rain
since 9am
mm
Weather Cloud Vis
km
Sea
Height
m
Swell
Dir
 
Speed
knots
Gust
knots
hPa Trend Height
m
Period
s
Dir
25/10:30am 27.3 NW 5 8 1011.2 - 0.0 - - 10 - - - -
25/10:00am 26.5 NW 6 9 1011.6 - 0.0 - - 10 - - - -
25/09:30am 25.8 NW 5 8 1011.7 - 0.0 - - 10 - - - -
25/09:00am 23.9 WNW 2 4 1011.8 - 0.0 - - 10 - - - -
25/08:30am 22.1 CALM 0 0 1011.8 - 0.0 - - 10 - - - -
25/08:00am 19.5 CALM 0 0 1011.7 - 0.0 - - 10 - - - -
25/07:30am 16.8 CALM 0 0 1011.4 - 0.0 - - 10 - - - -
25/07:00am 15.2 CALM 0 0 1011.2 - 0.0 - - 10 - - - -
25/06:30am 13.5 CALM 0 0 1010.9 - 0.0 - - 10 - - - -
25/06:00am 13.2 CALM 0 0 1010.5 - 0.0 - - 10 - - - -
25/05:30am 13.5 CALM 0 0 1010.4 - 0.0 - - 10 - - - -
25/05:00am 13.4 CALM 0 0 1010.2 - 0.0 - - 10 - - - -
25/04:30am 13.5 CALM 0 0 1010.0 - 0.0 - - 10 - - - -
25/04:00am 14.0 CALM 0 0 1009.9 - 0.0 - - 10 - - - -
25/03:30am 13.8 CALM 0 0 1010.0 - 0.0 - - 10 - - - -
25/03:00am 13.8 CALM 0 0 1010.1 - 0.0 - - 10 - - - -
25/02:30am 13.7 CALM 0 0 1010.1 - 0.0 - - 10 - - - -
25/02:00am 14.3 CALM 0 0 1010.3 - 0.0 - - 10 - - - -
25/01:30am 14.1 CALM 0 0 1010.3 - 0.0 - - 10 - - - -
25/01:00am 14.6 CALM 0 0 1010.4 - 0.0 - - 10 - - - -
25/12:30am 14.6 CALM 0 0 1010.7 - 0.0 - - 10 - - - -
25/12:00am 15.1 CALM 0 0 1010.8 - 0.0 - - 10 - - - -
 
Date/Time
EST
Temp

°C
Wind Pressure Rain
since 9am
mm
Weather Cloud Vis
km
Sea
Height
m
Swell
Dir
 
Speed
knots
Gust
knots
hPa Trend Height
m
Period
s
Dir
24/11:30pm 15.2 CALM 0 0 1010.7 - 0.0 - - 10 - - - -
24/11:00pm 15.4 CALM 0 0 1010.8 - 0.0 - - 10 - - - -
24/10:30pm 15.7 CALM 0 0 1010.9 - 0.0 - - 10 - - - -
24/10:00pm 15.6 CALM 0 0 1011.1 - 0.0 - - 10 - - - -
24/09:30pm 16.6 CALM 0 0 1011.1 - 0.0 - - 10 - - - -
24/09:00pm 16.7 CALM 0 0 1011.0 - 0.0 - - 10 - - - -
24/08:30pm 17.5 CALM 0 0 1010.9 - 0.0 - - 10 - - - -
24/08:00pm 17.9 CALM 0 0 1010.7 - 0.0 - - 10 - - - -
24/07:30pm 19.1 CALM 0 0 1010.4 - 0.0 - - 10 - - - -
24/07:00pm 19.7 CALM 0 0 1009.9 - 0.0 - - 10 - - - -
24/06:30pm 21.3 NNW 3 4 1009.5 - 0.0 - - 10 - - - -
24/06:00pm 22.0 NNE 3 4 1009.3 - 0.0 - Mostly cloudy 10 - - - -
24/05:30pm 22.7 NNE 4 6 1009.1 - 0.0 - - 10 - - - -
24/05:00pm 23.7 NE 5 7 1008.8 - 0.0 - - 10 - - - -
24/04:30pm 24.9 NE 7 11 1008.5 - 0.0 - - 10 - - - -
24/04:00pm 25.9 NE 7 11 1008.2 - 0.0 - - 10 - - - -
24/03:30pm 26.3 NE 8 12 1008.1 - 0.0 - - 10 - - - -
24/03:00pm 27.0 ENE 8 12 1008.1 - 0.0 - - 10 - - - -
24/02:30pm 27.2 ENE 8 11 1008.2 - 0.0 - - 10 - - - -
24/02:00pm 27.7 NE 7 9 1008.3 - 0.0 - Partly cloudy 10 - - - -
24/01:30pm 28.2 NE 5 8 1008.5 - 0.0 - - 10 - - - -
24/01:00pm 27.7 NNE 5 9 1008.9 - 0.0 - - 10 - - - -
24/12:30pm 27.5 NNW 5 7 1009.2 - 0.0 - - 10 - - - -
24/12:00pm 27.4 SE 3 6 1010.0 - 0.0 - - 10 - - - -
24/11:30am 26.8 SW 4 6 1010.4 - 0.0 - - 10 - - - -
24/11:00am 26.4 WNW 5 7 1010.7 - 0.0 - - 10 - - - -
24/10:30am 26.2 NE 2 6 1011.2 - 0.0 - - 10 - - - -
24/10:00am 25.1 SW 3 6 1011.6 - 0.0 - - 10 - - - -
24/09:30am 24.5 WSW 5 7 1011.7 - 0.0 - - 10 - - - -
24/09:00am 23.0 WSW 7 10 1011.9 - 0.0 - - 10 - - - -
24/08:30am 21.4 SW 5 7 1012.1 - 0.0 - - 10 - - - -
24/08:00am 17.9 SW 3 4 1011.9 - 0.0 - - 10 - - - -
24/07:30am 14.8 CALM 0 0 1011.6 - 0.0 - - 10 - - - -
24/07:00am 12.3 CALM 0 0 1011.1 - 0.0 - - 10 - - - -
24/06:30am 11.1 CALM 0 0 1010.8 - 0.0 - - 10 - - - -
24/06:00am 10.7 CALM 0 0 1010.6 - 0.0 - - 10 - - - -
24/05:30am 10.9 CALM 0 0 1010.5 - 0.0 - - 10 - - - -
24/05:00am 11.0 CALM 0 0 1010.5 - 0.0 - - 10 - - - -
24/04:30am 11.3 CALM 0 0 1010.3 - 0.0 - - 10 - - - -
24/04:00am 11.6 CALM 0 0 1010.4 - 0.0 - - 10 - - - -
24/03:30am 11.8 CALM 0 0 1010.0 - 0.0 - - 10 - - - -
24/03:00am 12.0 CALM 0 0 1010.4 - 0.0 - - 10 - - - -
24/02:30am 12.0 CALM 0 4 1010.4 - 0.0 - - 10 - - - -
24/02:00am 12.1 CALM 0 0 1010.8 - 0.0 - - 10 - - - -
24/01:30am 12.4 CALM 0 0 1011.0 - 0.0 - - 10 - - - -
24/01:00am 12.2 CALM 0 0 1011.1 - 0.0 - - 10 - - - -
24/12:30am 12.7 CALM 0 1 1011.4 - 0.0 - - 10 - - - -
24/12:00am 12.5 CALM 0 0 1011.4 - 0.0 - - 10 - - - -
 
Date/Time
EST
Temp

°C
Wind Pressure Rain
since 9am
mm
Weather Cloud Vis
km
Sea
Height
m
Swell
Dir
 
Speed
knots
Gust
knots
hPa Trend Height
m
Period
s
Dir
23/11:30pm 12.8 CALM 0 0 1011.5 - 0.0 - - 10 - - - -
23/11:00pm 13.0 CALM 0 0 1011.7 - 0.0 - - 10 - - - -
23/10:30pm 13.0 ENE 2 5 1011.7 - 0.0 - - 10 - - - -
23/10:00pm 13.4 CALM 0 0 1011.8 - 0.0 - - 10 - - - -
23/09:30pm 13.5 CALM 0 0 1011.8 - 0.0 - - 10 - - - -
23/09:00pm 14.2 CALM 0 0 1011.8 - 0.0 - - 10 - - - -
23/08:30pm 14.7 WNW 1 4 1011.9 - 0.0 - - 10 - - - -
23/08:00pm 14.9 CALM 0 0 1011.4 - 0.0 - - 10 - - - -
23/07:30pm 15.6 CALM 0 0 1011.2 - 0.0 - - 10 - - - -
23/07:00pm 16.4 CALM 0 0 1010.8 - 0.0 - - 10 - - - -
23/06:30pm 17.0 CALM 0 0 1010.3 - 0.0 - - 10 - - - -
23/06:00pm 19.4 ENE 1 3 1010.0 - 0.0 - - 10 - - - -
23/05:30pm 21.1 ENE 5 6 1009.6 - 0.0 - - 10 - - - -
23/05:00pm 22.6 E 5 7 1009.3 - 0.0 - - 10 - - - -
23/04:30pm 23.2 E 7 10 1009.0 - 0.0 - - 10 - - - -
23/04:00pm 23.8 ESE 5 9 1009.0 - 0.0 - - 10 - - - -
23/03:30pm 23.9 SE 7 11 1009.1 - 0.0 - - 10 - - - -
23/03:00pm 24.2 E 6 11 1009.2 - 0.0 - - 10 - - - -
23/02:30pm 24.5 ESE 7 11 1009.5 - 0.0 - - 10 - - - -
23/02:00pm 24.7 ESE 8 12 1009.7 - 0.0 - - 10 - - - -
23/01:30pm 24.6 SE 7 10 1010.1 - 0.0 - - 10 - - - -
23/01:00pm 24.9 SE 7 13 1010.7 - 0.0 - - 10 - - - -
23/12:30pm 24.1 SSE 7 12 1011.4 - 0.0 - - 10 - - - -
23/12:00pm 24.0 S 6 12 1011.9 - 0.0 - - 10 - - - -
23/11:30am 23.8 S 7 11 1012.4 - 0.0 - - 10 - - - -
23/11:00am 22.9 S 8 13 1013.1 - 0.0 - - 10 - - - -
23/10:30am 23.0 S 7 12 1013.5 - 0.0 - - 10 - - - -
23/10:00am 22.7 S 9 13 1013.8 - 0.0 - - 10 - - - -
23/09:30am 21.5 S 8 11 1014.0 - 0.0 - - 10 - - - -
23/09:00am 20.7 S 8 11 1014.3 - 0.0 - - 10 - - - -
23/08:30am 18.4 SW 3 5 1014.3 - 0.0 - - 10 - - - -
23/08:00am 16.1 SW 3 4 1013.9 - 0.0 - - 10 - - - -
23/07:30am 14.6 SW 3 4 1013.9 - 0.0 - - 10 - - - -
23/07:00am 12.5 CALM 0 0 1013.5 - 0.0 - - 10 - - - -
23/06:30am 9.7 CALM 0 0 1013.2 - 0.0 - - 10 - - - -
23/06:00am 9.4 CALM 0 0 1012.8 - 0.0 - - 10 - - - -
23/05:30am 9.9 W 2 4 1012.3 - 0.0 - - 10 - - - -
23/05:00am 9.7 CALM 0 0 1011.9 - 0.0 - - 10 - - - -
23/04:30am 10.2 CALM 0 0 1011.8 - 0.0 - - 10 - - - -
23/04:00am 10.3 CALM 0 0 1011.6 - 0.0 - - 10 - - - -
23/03:30am 10.2 NW 1 3 1011.6 - 0.0 - - 10 - - - -
23/03:00am 10.5 CALM 0 0 1011.7 - 0.0 - - 10 - - - -
23/02:30am 10.7 CALM 0 0 1011.9 - 0.0 - - 10 - - - -
23/02:00am 10.6 NE 4 4 1012.0 - 0.0 - - 10 - - - -
23/01:30am 11.2 ESE 1 4 1012.4 - 0.0 - - 10 - - - -
23/01:00am 11.2 ESE 1 3 1012.5 - 0.0 - - 10 - - - -
23/12:30am 11.4 CALM 0 0 1012.8 - 0.0 - - 10 - - - -
23/12:00am 11.6 CALM 0 0 1013.0 - 0.0 - - 10 - - - -
 
Date/Time
EST
Temp

°C
Wind Pressure Rain
since 9am
mm
Weather Cloud Vis
km
Sea
Height
m
Swell
Dir
 
Speed
knots
Gust
knots
hPa Trend Height
m
Period
s
Dir
22/11:30pm 11.5 CALM 0 0 1013.2 - 0.0 - - 10 - - - -
22/11:00pm 12.2 CALM 0 0 1013.5 - 0.0 - - 10 - - - -
22/10:30pm 12.1 ENE 2 3 1013.7 - 0.0 - - 10 - - - -
22/10:00pm 12.3 E 3 5 1013.9 - 0.0 - - 10 - - - -
22/09:30pm 13.4 ESE 1 4 1014.0 - 0.0 - - 10 - - - -
22/09:00pm 13.4 CALM 0 0 1014.1 - 0.0 - - 10 - - - -
22/08:30pm 14.0 CALM 0 0 1013.8 - 0.0 - - 10 - - - -
22/08:00pm 14.1 CALM 0 0 1013.7 - 0.0 - - 10 - - - -
22/07:30pm 15.0 E 3 3 1013.3 - 0.0 - - 10 - - - -
22/07:00pm 15.9 CALM 0 0 1013.0 - 0.0 - - 10 - - - -
22/06:30pm 16.8 CALM 0 0 1012.6 - 0.0 - - 10 - - - -
22/06:00pm 18.8 ENE 3 4 1012.3 - 0.0 - - 10 - - - -
22/05:30pm 20.7 E 3 5 1012.0 - 0.0 - - 10 - - - -
22/05:00pm 22.2 SE 4 5 1011.5 - 0.0 - - 10 - - - -
22/04:30pm 22.7 ESE 5 7 1011.1 - 0.0 - - 10 - - - -
22/04:00pm 23.5 ESE 5 7 1010.9 - 0.0 - - 10 - - - -
22/03:30pm 23.8 ESE 6 9 1010.9 - 0.0 - - 10 - - - -
22/03:00pm 25.0 S 7 11 1010.9 - 0.0 - - 10 - - - -
22/02:30pm 25.6 SSW 5 10 1011.0 - 0.0 - - 10 - - - -
22/02:00pm 25.4 SSW 5 9 1011.4 - 0.0 - - 10 - - - -
22/01:30pm 24.3 NNW 4 6 1012.0 - 0.0 - - 10 - - - -
22/01:00pm 24.2 E 7 10 1012.3 - 0.0 - - 10 - - - -
22/12:30pm 23.8 SW 4 8 1013.0 - 0.0 - - 10 - - - -
22/12:00pm 22.8 S 6 10 1013.5 - 0.0 - - 10 - - - -
22/11:30am 22.4 S 5 8 1014.1 - 0.0 - - 10 - - - -
22/11:00am 21.9 S 7 11 1015.0 - 0.0 - - 10 - - - -

Other Formats:

Comma delimited format used in spreadsheet applications
http://www.bom.gov.au/fwo/IDQ60701/IDQ60701.94370.axf

JavaScript Object Notation format (JSON) in row-major order
http://www.bom.gov.au/fwo/IDQ60701/IDQ60701.94370.json